sensor_id;sensor_type;location;lat;lon;timestamp;P1;durP1;ratioP1;P2;durP2;ratioP2
65658;SDS011;60181;53.258;6.932;2023-03-31T00:00:50;25.40;;;3.20;;
65658;SDS011;60181;53.258;6.932;2023-03-31T00:04:51;24.40;;;3.40;;
65658;SDS011;60181;53.258;6.932;2023-03-31T00:08:55;24.40;;;3.40;;
65658;SDS011;60181;53.258;6.932;2023-03-31T00:12:59;28.20;;;3.30;;
65658;SDS011;60181;53.258;6.932;2023-03-31T00:17:03;28.20;;;3.30;;
65658;SDS011;60181;53.258;6.932;2023-03-31T00:21:11;28.20;;;3.30;;
65658;SDS011;60181;53.258;6.932;2023-03-31T00:25:12;26.90;;;3.10;;
65658;SDS011;60181;53.258;6.932;2023-03-31T00:29:15;26.90;;;3.10;;
65658;SDS011;60181;53.258;6.932;2023-03-31T00:33:19;32.40;;;3.40;;
65658;SDS011;60181;53.258;6.932;2023-03-31T00:37:23;32.40;;;3.40;;
65658;SDS011;60181;53.258;6.932;2023-03-31T00:41:27;32.40;;;3.40;;
65658;SDS011;60181;53.258;6.932;2023-03-31T00:45:31;29.80;;;3.20;;
65658;SDS011;60181;53.258;6.932;2023-03-31T00:49:39;29.80;;;3.20;;
65658;SDS011;60181;53.258;6.932;2023-03-31T00:53:39;30.30;;;3.60;;
65658;SDS011;60181;53.258;6.932;2023-03-31T00:57:44;30.30;;;3.60;;
65658;SDS011;60181;53.258;6.932;2023-03-31T01:01:47;30.30;;;3.60;;
65658;SDS011;60181;53.258;6.932;2023-03-31T01:05:55;22.90;;;3.50;;
65658;SDS011;60181;53.258;6.932;2023-03-31T01:09:59;22.90;;;3.50;;
65658;SDS011;60181;53.258;6.932;2023-03-31T01:13:59;23.00;;;3.40;;
65658;SDS011;60181;53.258;6.932;2023-03-31T01:18:06;23.00;;;3.40;;
65658;SDS011;60181;53.258;6.932;2023-03-31T01:30:21;31.30;;;3.70;;
65658;SDS011;60181;53.258;6.932;2023-03-31T01:34:29;26.60;;;3.80;;
65658;SDS011;60181;53.258;6.932;2023-03-31T01:46:32;25.20;;;3.80;;
65658;SDS011;60181;53.258;6.932;2023-03-31T01:50:44;25.20;;;3.80;;
65658;SDS011;60181;53.258;6.932;2023-03-31T01:58:47;29.00;;;3.30;;
65658;SDS011;60181;53.258;6.932;2023-03-31T02:02:56;27.90;;;3.80;;
65658;SDS011;60181;53.258;6.932;2023-03-31T02:06:53;27.90;;;3.80;;
65658;SDS011;60181;53.258;6.932;2023-03-31T02:10:55;27.90;;;3.80;;
65658;SDS011;60181;53.258;6.932;2023-03-31T02:14:59;27.10;;;3.20;;
65658;SDS011;60181;53.258;6.932;2023-03-31T02:19:03;27.10;;;3.20;;
65658;SDS011;60181;53.258;6.932;2023-03-31T02:23:07;21.30;;;3.00;;
65658;SDS011;60181;53.258;6.932;2023-03-31T02:35:19;25.10;;;3.40;;
65658;SDS011;60181;53.258;6.932;2023-03-31T02:39:24;25.10;;;3.40;;
65658;SDS011;60181;53.258;6.932;2023-03-31T02:43:27;22.80;;;3.00;;
65658;SDS011;60181;53.258;6.932;2023-03-31T02:47:31;22.80;;;3.00;;
65658;SDS011;60181;53.258;6.932;2023-03-31T02:51:39;22.80;;;3.00;;
65658;SDS011;60181;53.258;6.932;2023-03-31T03:03:55;25.30;;;3.20;;
65658;SDS011;60181;53.258;6.932;2023-03-31T03:07:57;25.30;;;3.20;;
65658;SDS011;60181;53.258;6.932;2023-03-31T03:12:00;25.30;;;3.20;;
65658;SDS011;60181;53.258;6.932;2023-03-31T03:16:07;21.30;;;3.20;;
65658;SDS011;60181;53.258;6.932;2023-03-31T03:20:03;21.30;;;3.20;;
65658;SDS011;60181;53.258;6.932;2023-03-31T03:24:07;18.40;;;2.60;;
65658;SDS011;60181;53.258;6.932;2023-03-31T03:28:11;18.40;;;2.60;;
65658;SDS011;60181;53.258;6.932;2023-03-31T03:32:15;18.40;;;2.60;;
65658;SDS011;60181;53.258;6.932;2023-03-31T03:36:19;23.20;;;3.00;;
65658;SDS011;60181;53.258;6.932;2023-03-31T03:40:23;23.20;;;3.00;;
65658;SDS011;60181;53.258;6.932;2023-03-31T03:44:27;21.40;;;3.10;;
65658;SDS011;60181;53.258;6.932;2023-03-31T03:48:31;21.40;;;3.10;;
65658;SDS011;60181;53.258;6.932;2023-03-31T03:52:35;18.00;;;2.90;;
65658;SDS011;60181;53.258;6.932;2023-03-31T03:56:39;18.00;;;2.90;;
65658;SDS011;60181;53.258;6.932;2023-03-31T04:00:43;18.00;;;2.90;;
65658;SDS011;60181;53.258;6.932;2023-03-31T04:04:47;20.20;;;2.90;;
65658;SDS011;60181;53.258;6.932;2023-03-31T04:08:51;20.20;;;2.90;;
65658;SDS011;60181;53.258;6.932;2023-03-31T04:12:55;19.40;;;3.10;;
65658;SDS011;60181;53.258;6.932;2023-03-31T04:16:59;19.40;;;3.10;;
65658;SDS011;60181;53.258;6.932;2023-03-31T04:21:03;19.40;;;3.10;;
65658;SDS011;60181;53.258;6.932;2023-03-31T04:25:07;17.10;;;3.30;;
65658;SDS011;60181;53.258;6.932;2023-03-31T04:29:11;17.10;;;3.30;;
65658;SDS011;60181;53.258;6.932;2023-03-31T04:33:15;16.80;;;3.20;;
65658;SDS011;60181;53.258;6.932;2023-03-31T04:37:19;16.80;;;3.20;;
65658;SDS011;60181;53.258;6.932;2023-03-31T04:41:23;16.80;;;3.20;;
65658;SDS011;60181;53.258;6.932;2023-03-31T04:45:27;16.50;;;3.20;;
65658;SDS011;60181;53.258;6.932;2023-03-31T04:49:31;16.50;;;3.20;;
65658;SDS011;60181;53.258;6.932;2023-03-31T04:53:35;17.40;;;3.50;;
65658;SDS011;60181;53.258;6.932;2023-03-31T04:57:39;17.40;;;3.50;;
65658;SDS011;60181;53.258;6.932;2023-03-31T05:01:43;17.40;;;3.50;;
65658;SDS011;60181;53.258;6.932;2023-03-31T05:05:47;13.10;;;3.30;;
65658;SDS011;60181;53.258;6.932;2023-03-31T05:09:51;13.10;;;3.30;;
65658;SDS011;60181;53.258;6.932;2023-03-31T05:13:55;14.40;;;3.30;;
65658;SDS011;60181;53.258;6.932;2023-03-31T05:17:59;14.40;;;3.30;;
65658;SDS011;60181;53.258;6.932;2023-03-31T05:22:03;14.40;;;3.30;;
65658;SDS011;60181;53.258;6.932;2023-03-31T05:26:07;13.50;;;3.30;;
65658;SDS011;60181;53.258;6.932;2023-03-31T05:30:11;13.50;;;3.30;;
65658;SDS011;60181;53.258;6.932;2023-03-31T05:34:15;13.80;;;3.50;;
65658;SDS011;60181;53.258;6.932;2023-03-31T05:38:19;13.80;;;3.50;;
65658;SDS011;60181;53.258;6.932;2023-03-31T05:42:23;13.80;;;3.50;;
65658;SDS011;60181;53.258;6.932;2023-03-31T05:46:27;16.00;;;3.30;;
65658;SDS011;60181;53.258;6.932;2023-03-31T05:50:31;16.00;;;3.30;;
65658;SDS011;60181;53.258;6.932;2023-03-31T05:54:35;13.80;;;3.50;;
65658;SDS011;60181;53.258;6.932;2023-03-31T05:58:39;13.80;;;3.50;;
65658;SDS011;60181;53.258;6.932;2023-03-31T06:02:43;14.80;;;3.20;;
65658;SDS011;60181;53.258;6.932;2023-03-31T06:06:47;14.80;;;3.20;;
65658;SDS011;60181;53.258;6.932;2023-03-31T06:10:51;14.80;;;3.20;;
65658;SDS011;60181;53.258;6.932;2023-03-31T06:14:55;10.70;;;3.20;;
65658;SDS011;60181;53.258;6.932;2023-03-31T06:18:59;10.70;;;3.20;;
65658;SDS011;60181;53.258;6.932;2023-03-31T06:23:03;12.20;;;3.30;;
65658;SDS011;60181;53.258;6.932;2023-03-31T06:27:07;12.20;;;3.30;;
65658;SDS011;60181;53.258;6.932;2023-03-31T06:31:20;12.20;;;3.30;;
65658;SDS011;60181;53.258;6.932;2023-03-31T06:35:15;10.00;;;2.70;;
65658;SDS011;60181;53.258;6.932;2023-03-31T06:39:19;10.00;;;2.70;;
65658;SDS011;60181;53.258;6.932;2023-03-31T06:43:23;12.70;;;3.30;;
65658;SDS011;60181;53.258;6.932;2023-03-31T06:47:27;12.70;;;3.30;;
65658;SDS011;60181;53.258;6.932;2023-03-31T06:51:30;12.70;;;3.30;;
65658;SDS011;60181;53.258;6.932;2023-03-31T06:55:35;9.80;;;3.10;;
65658;SDS011;60181;53.258;6.932;2023-03-31T06:59:38;9.80;;;3.10;;
65658;SDS011;60181;53.258;6.932;2023-03-31T07:03:42;10.40;;;2.90;;
65658;SDS011;60181;53.258;6.932;2023-03-31T07:07:46;10.40;;;2.90;;
65658;SDS011;60181;53.258;6.932;2023-03-31T07:11:50;10.40;;;2.90;;
65658;SDS011;60181;53.258;6.932;2023-03-31T07:15:55;9.70;;;3.00;;
65658;SDS011;60181;53.258;6.932;2023-03-31T07:19:58;9.70;;;3.00;;
65658;SDS011;60181;53.258;6.932;2023-03-31T07:24:03;22.90;;;3.10;;
65658;SDS011;60181;53.258;6.932;2023-03-31T07:28:06;22.90;;;3.10;;
65658;SDS011;60181;53.258;6.932;2023-03-31T07:32:10;22.90;;;3.10;;
65658;SDS011;60181;53.258;6.932;2023-03-31T07:36:14;15.20;;;3.00;;
65658;SDS011;60181;53.258;6.932;2023-03-31T07:40:22;15.20;;;3.00;;
65658;SDS011;60181;53.258;6.932;2023-03-31T07:44:22;12.20;;;2.70;;
65658;SDS011;60181;53.258;6.932;2023-03-31T07:48:26;12.20;;;2.70;;
65658;SDS011;60181;53.258;6.932;2023-03-31T07:52:30;12.20;;;2.70;;
65658;SDS011;60181;53.258;6.932;2023-03-31T07:56:34;9.80;;;2.40;;
65658;SDS011;60181;53.258;6.932;2023-03-31T08:00:38;9.80;;;2.40;;
65658;SDS011;60181;53.258;6.932;2023-03-31T08:04:43;10.70;;;2.40;;
65658;SDS011;60181;53.258;6.932;2023-03-31T08:08:47;10.70;;;2.40;;
65658;SDS011;60181;53.258;6.932;2023-03-31T08:12:50;6.50;;;1.80;;
65658;SDS011;60181;53.258;6.932;2023-03-31T08:16:54;6.50;;;1.80;;
65658;SDS011;60181;53.258;6.932;2023-03-31T08:20:58;6.50;;;1.80;;
65658;SDS011;60181;53.258;6.932;2023-03-31T08:25:03;7.00;;;1.80;;
65658;SDS011;60181;53.258;6.932;2023-03-31T08:29:06;7.00;;;1.80;;
65658;SDS011;60181;53.258;6.932;2023-03-31T08:33:10;6.90;;;1.70;;
65658;SDS011;60181;53.258;6.932;2023-03-31T08:37:14;6.90;;;1.70;;
65658;SDS011;60181;53.258;6.932;2023-03-31T08:49:27;7.30;;;1.60;;
65658;SDS011;60181;53.258;6.932;2023-03-31T08:53:32;5.40;;;1.50;;
65658;SDS011;60181;53.258;6.932;2023-03-31T08:57:39;5.40;;;1.50;;
65658;SDS011;60181;53.258;6.932;2023-03-31T09:01:43;5.40;;;1.50;;
65658;SDS011;60181;53.258;6.932;2023-03-31T09:05:46;6.60;;;1.60;;
65658;SDS011;60181;53.258;6.932;2023-03-31T09:14:09;8.00;;;1.60;;
65658;SDS011;60181;53.258;6.932;2023-03-31T09:17:56;8.00;;;1.60;;
65658;SDS011;60181;53.258;6.932;2023-03-31T09:21:58;8.00;;;1.60;;
65658;SDS011;60181;53.258;6.932;2023-03-31T09:26:03;5.60;;;1.60;;
65658;SDS011;60181;53.258;6.932;2023-03-31T09:34:15;5.20;;;1.50;;
65658;SDS011;60181;53.258;6.932;2023-03-31T09:38:14;5.20;;;1.50;;
65658;SDS011;60181;53.258;6.932;2023-03-31T09:42:18;5.20;;;1.50;;
65658;SDS011;60181;53.258;6.932;2023-03-31T09:46:29;4.90;;;1.50;;
65658;SDS011;60181;53.258;6.932;2023-03-31T09:50:26;4.90;;;1.50;;
65658;SDS011;60181;53.258;6.932;2023-03-31T09:54:33;4.10;;;1.40;;
65658;SDS011;60181;53.258;6.932;2023-03-31T09:58:41;4.10;;;1.40;;
65658;SDS011;60181;53.258;6.932;2023-03-31T10:02:40;3.70;;;1.50;;
65658;SDS011;60181;53.258;6.932;2023-03-31T10:06:42;3.70;;;1.50;;
65658;SDS011;60181;53.258;6.932;2023-03-31T10:10:53;3.70;;;1.50;;
65658;SDS011;60181;53.258;6.932;2023-03-31T10:14:51;4.70;;;1.50;;
65658;SDS011;60181;53.258;6.932;2023-03-31T10:18:54;4.70;;;1.50;;
65658;SDS011;60181;53.258;6.932;2023-03-31T10:23:02;3.40;;;1.40;;
65658;SDS011;60181;53.258;6.932;2023-03-31T10:27:03;3.40;;;1.40;;
65658;SDS011;60181;53.258;6.932;2023-03-31T10:31:06;3.40;;;1.40;;
65658;SDS011;60181;53.258;6.932;2023-03-31T10:39:15;6.30;;;1.50;;
65658;SDS011;60181;53.258;6.932;2023-03-31T10:43:19;3.80;;;1.30;;
65658;SDS011;60181;53.258;6.932;2023-03-31T10:47:22;3.80;;;1.30;;
65658;SDS011;60181;53.258;6.932;2023-03-31T10:51:26;3.80;;;1.30;;
65658;SDS011;60181;53.258;6.932;2023-03-31T11:03:48;4.70;;;1.20;;
65658;SDS011;60181;53.258;6.932;2023-03-31T11:07:51;4.70;;;1.20;;
65658;SDS011;60181;53.258;6.932;2023-03-31T11:11:57;4.70;;;1.20;;
65658;SDS011;60181;53.258;6.932;2023-03-31T11:32:15;5.40;;;1.30;;
65658;SDS011;60181;53.258;6.932;2023-03-31T11:40:24;5.10;;;1.20;;
65658;SDS011;60181;53.258;6.932;2023-03-31T11:44:18;5.00;;;1.10;;
65658;SDS011;60181;53.258;6.932;2023-03-31T11:48:30;5.00;;;1.10;;
65658;SDS011;60181;53.258;6.932;2023-03-31T11:52:30;5.00;;;1.10;;
65658;SDS011;60181;53.258;6.932;2023-03-31T11:56:37;3.20;;;1.30;;
65658;SDS011;60181;53.258;6.932;2023-03-31T12:00:38;3.20;;;1.30;;
65658;SDS011;60181;53.258;6.932;2023-03-31T12:04:39;4.10;;;1.10;;
65658;SDS011;60181;53.258;6.932;2023-03-31T12:08:45;4.10;;;1.10;;
65658;SDS011;60181;53.258;6.932;2023-03-31T12:16:50;5.00;;;1.10;;
65658;SDS011;60181;53.258;6.932;2023-03-31T12:20:55;5.00;;;1.10;;
65658;SDS011;60181;53.258;6.932;2023-03-31T12:24:58;2.90;;;1.00;;
65658;SDS011;60181;53.258;6.932;2023-03-31T12:29:04;2.90;;;1.00;;
65658;SDS011;60181;53.258;6.932;2023-03-31T12:33:11;5.30;;;1.20;;
65658;SDS011;60181;53.258;6.932;2023-03-31T12:45:27;4.50;;;1.20;;
65658;SDS011;60181;53.258;6.932;2023-03-31T12:53:38;3.20;;;1.10;;
65658;SDS011;60181;53.258;6.932;2023-03-31T12:57:30;3.20;;;1.10;;
65658;SDS011;60181;53.258;6.932;2023-03-31T13:01:34;3.20;;;1.10;;
65658;SDS011;60181;53.258;6.932;2023-03-31T13:05:44;3.10;;;1.10;;
65658;SDS011;60181;53.258;6.932;2023-03-31T13:09:46;3.10;;;1.10;;
65658;SDS011;60181;53.258;6.932;2023-03-31T13:14:01;4.10;;;1.00;;
65658;SDS011;60181;53.258;6.932;2023-03-31T13:17:59;4.10;;;1.00;;
65658;SDS011;60181;53.258;6.932;2023-03-31T13:21:54;4.10;;;1.00;;
65658;SDS011;60181;53.258;6.932;2023-03-31T13:25:58;3.30;;;0.80;;
65658;SDS011;60181;53.258;6.932;2023-03-31T13:30:02;3.30;;;0.80;;
65658;SDS011;60181;53.258;6.932;2023-03-31T13:34:06;3.20;;;1.10;;
65658;SDS011;60181;53.258;6.932;2023-03-31T13:38:16;3.20;;;1.10;;
65658;SDS011;60181;53.258;6.932;2023-03-31T13:42:28;3.20;;;1.10;;
65658;SDS011;60181;53.258;6.932;2023-03-31T13:46:32;3.30;;;0.90;;
65658;SDS011;60181;53.258;6.932;2023-03-31T13:50:28;3.30;;;0.90;;
65658;SDS011;60181;53.258;6.932;2023-03-31T13:54:39;2.70;;;1.10;;
65658;SDS011;60181;53.258;6.932;2023-03-31T14:06:57;2.60;;;1.00;;
65658;SDS011;60181;53.258;6.932;2023-03-31T14:10:42;2.60;;;1.00;;
65658;SDS011;60181;53.258;6.932;2023-03-31T14:14:46;3.10;;;0.90;;
65658;SDS011;60181;53.258;6.932;2023-03-31T14:18:50;3.10;;;0.90;;
65658;SDS011;60181;53.258;6.932;2023-03-31T14:27:02;3.60;;;0.90;;
65658;SDS011;60181;53.258;6.932;2023-03-31T14:31:06;3.60;;;0.90;;
65658;SDS011;60181;53.258;6.932;2023-03-31T14:39:10;1.80;;;0.90;;
65658;SDS011;60181;53.258;6.932;2023-03-31T14:43:18;2.90;;;0.90;;
65658;SDS011;60181;53.258;6.932;2023-03-31T14:47:22;2.90;;;0.90;;
65658;SDS011;60181;53.258;6.932;2023-03-31T14:51:29;2.90;;;0.90;;
65658;SDS011;60181;53.258;6.932;2023-03-31T14:55:29;2.60;;;0.90;;
65658;SDS011;60181;53.258;6.932;2023-03-31T14:59:31;2.60;;;0.90;;
65658;SDS011;60181;53.258;6.932;2023-03-31T15:03:34;2.10;;;1.00;;
65658;SDS011;60181;53.258;6.932;2023-03-31T15:07:39;2.10;;;1.00;;
65658;SDS011;60181;53.258;6.932;2023-03-31T15:11:42;2.10;;;1.00;;
65658;SDS011;60181;53.258;6.932;2023-03-31T15:15:46;1.90;;;0.90;;
65658;SDS011;60181;53.258;6.932;2023-03-31T15:19:54;1.90;;;0.90;;
65658;SDS011;60181;53.258;6.932;2023-03-31T15:23:54;5.10;;;1.10;;
65658;SDS011;60181;53.258;6.932;2023-03-31T15:27:59;5.10;;;1.10;;
65658;SDS011;60181;53.258;6.932;2023-03-31T15:32:02;5.10;;;1.10;;
65658;SDS011;60181;53.258;6.932;2023-03-31T15:36:07;11.30;;;0.90;;
65658;SDS011;60181;53.258;6.932;2023-03-31T15:40:29;11.30;;;0.90;;
65658;SDS011;60181;53.258;6.932;2023-03-31T15:44:27;4.60;;;2.00;;
65658;SDS011;60181;53.258;6.932;2023-03-31T15:48:33;4.60;;;2.00;;
65658;SDS011;60181;53.258;6.932;2023-03-31T15:52:26;4.60;;;2.00;;
65658;SDS011;60181;53.258;6.932;2023-03-31T15:56:29;4.90;;;1.80;;
65658;SDS011;60181;53.258;6.932;2023-03-31T16:04:34;4.70;;;1.70;;
65658;SDS011;60181;53.258;6.932;2023-03-31T16:08:42;4.70;;;1.70;;
65658;SDS011;60181;53.258;6.932;2023-03-31T16:12:47;4.70;;;1.70;;
65658;SDS011;60181;53.258;6.932;2023-03-31T16:16:47;4.70;;;2.00;;
65658;SDS011;60181;53.258;6.932;2023-03-31T16:20:53;4.70;;;2.00;;
65658;SDS011;60181;53.258;6.932;2023-03-31T16:24:54;13.80;;;5.40;;
65658;SDS011;60181;53.258;6.932;2023-03-31T16:28:58;13.80;;;5.40;;
65658;SDS011;60181;53.258;6.932;2023-03-31T16:37:06;7.80;;;3.40;;
65658;SDS011;60181;53.258;6.932;2023-03-31T16:41:10;7.80;;;3.40;;
65658;SDS011;60181;53.258;6.932;2023-03-31T16:45:14;11.00;;;4.00;;
65658;SDS011;60181;53.258;6.932;2023-03-31T16:49:18;11.00;;;4.00;;
65658;SDS011;60181;53.258;6.932;2023-03-31T16:53:23;10.00;;;3.90;;
65658;SDS011;60181;53.258;6.932;2023-03-31T16:57:26;10.00;;;3.90;;
65658;SDS011;60181;53.258;6.932;2023-03-31T17:01:30;10.00;;;3.90;;
65658;SDS011;60181;53.258;6.932;2023-03-31T17:05:37;12.90;;;4.30;;
65658;SDS011;60181;53.258;6.932;2023-03-31T17:09:38;12.90;;;4.30;;
65658;SDS011;60181;53.258;6.932;2023-03-31T17:13:42;19.00;;;5.40;;
65658;SDS011;60181;53.258;6.932;2023-03-31T17:17:47;19.00;;;5.40;;
65658;SDS011;60181;53.258;6.932;2023-03-31T17:21:50;19.00;;;5.40;;
65658;SDS011;60181;53.258;6.932;2023-03-31T17:25:54;13.50;;;5.30;;
65658;SDS011;60181;53.258;6.932;2023-03-31T17:29:58;13.50;;;5.30;;
65658;SDS011;60181;53.258;6.932;2023-03-31T17:34:02;14.20;;;5.20;;
65658;SDS011;60181;53.258;6.932;2023-03-31T17:38:06;14.20;;;5.20;;
65658;SDS011;60181;53.258;6.932;2023-03-31T17:42:10;14.20;;;5.20;;
65658;SDS011;60181;53.258;6.932;2023-03-31T17:46:14;11.90;;;5.20;;
65658;SDS011;60181;53.258;6.932;2023-03-31T17:50:18;11.90;;;5.20;;
65658;SDS011;60181;53.258;6.932;2023-03-31T17:54:22;13.90;;;4.80;;
65658;SDS011;60181;53.258;6.932;2023-03-31T17:58:26;13.90;;;4.80;;
65658;SDS011;60181;53.258;6.932;2023-03-31T18:02:30;13.90;;;4.80;;
65658;SDS011;60181;53.258;6.932;2023-03-31T18:06:34;12.40;;;4.90;;
65658;SDS011;60181;53.258;6.932;2023-03-31T18:10:38;12.40;;;4.90;;
65658;SDS011;60181;53.258;6.932;2023-03-31T18:14:42;16.40;;;4.50;;
65658;SDS011;60181;53.258;6.932;2023-03-31T18:18:46;16.40;;;4.50;;
65658;SDS011;60181;53.258;6.932;2023-03-31T18:22:50;16.40;;;4.50;;
65658;SDS011;60181;53.258;6.932;2023-03-31T18:26:54;10.80;;;4.10;;
65658;SDS011;60181;53.258;6.932;2023-03-31T18:31:01;10.80;;;4.10;;
65658;SDS011;60181;53.258;6.932;2023-03-31T18:35:02;8.70;;;3.30;;
65658;SDS011;60181;53.258;6.932;2023-03-31T18:39:06;8.70;;;3.30;;
65658;SDS011;60181;53.258;6.932;2023-03-31T18:43:10;10.10;;;3.80;;
65658;SDS011;60181;53.258;6.932;2023-03-31T18:47:14;10.10;;;3.80;;
65658;SDS011;60181;53.258;6.932;2023-03-31T18:51:18;10.10;;;3.80;;
65658;SDS011;60181;53.258;6.932;2023-03-31T18:55:22;12.60;;;3.90;;
65658;SDS011;60181;53.258;6.932;2023-03-31T18:59:26;12.60;;;3.90;;
65658;SDS011;60181;53.258;6.932;2023-03-31T19:03:30;9.30;;;3.40;;
65658;SDS011;60181;53.258;6.932;2023-03-31T19:07:34;9.30;;;3.40;;
65658;SDS011;60181;53.258;6.932;2023-03-31T19:11:38;9.30;;;3.40;;
65658;SDS011;60181;53.258;6.932;2023-03-31T19:15:42;8.10;;;3.20;;
65658;SDS011;60181;53.258;6.932;2023-03-31T19:19:46;8.10;;;3.20;;
65658;SDS011;60181;53.258;6.932;2023-03-31T19:23:50;7.90;;;3.50;;
65658;SDS011;60181;53.258;6.932;2023-03-31T19:27:54;7.90;;;3.50;;
65658;SDS011;60181;53.258;6.932;2023-03-31T19:31:58;7.90;;;3.50;;
65658;SDS011;60181;53.258;6.932;2023-03-31T19:36:02;7.00;;;2.90;;
65658;SDS011;60181;53.258;6.932;2023-03-31T19:40:06;7.00;;;2.90;;
65658;SDS011;60181;53.258;6.932;2023-03-31T19:44:10;7.80;;;3.10;;
65658;SDS011;60181;53.258;6.932;2023-03-31T19:48:14;7.80;;;3.10;;
65658;SDS011;60181;53.258;6.932;2023-03-31T19:52:18;7.80;;;3.10;;
65658;SDS011;60181;53.258;6.932;2023-03-31T19:56:21;6.50;;;2.70;;
65658;SDS011;60181;53.258;6.932;2023-03-31T20:00:25;6.50;;;2.70;;
65658;SDS011;60181;53.258;6.932;2023-03-31T20:04:30;6.30;;;3.00;;
65658;SDS011;60181;53.258;6.932;2023-03-31T20:08:34;6.30;;;3.00;;
65658;SDS011;60181;53.258;6.932;2023-03-31T20:12:37;6.30;;;3.00;;
65658;SDS011;60181;53.258;6.932;2023-03-31T20:16:41;6.40;;;2.70;;
65658;SDS011;60181;53.258;6.932;2023-03-31T20:20:45;6.40;;;2.70;;
65658;SDS011;60181;53.258;6.932;2023-03-31T20:24:49;6.00;;;2.60;;
65658;SDS011;60181;53.258;6.932;2023-03-31T20:28:54;6.00;;;2.60;;
65658;SDS011;60181;53.258;6.932;2023-03-31T20:32:57;4.80;;;2.50;;
65658;SDS011;60181;53.258;6.932;2023-03-31T20:37:01;4.80;;;2.50;;
65658;SDS011;60181;53.258;6.932;2023-03-31T20:41:06;4.80;;;2.50;;
65658;SDS011;60181;53.258;6.932;2023-03-31T20:45:09;5.40;;;2.90;;
65658;SDS011;60181;53.258;6.932;2023-03-31T20:49:13;5.40;;;2.90;;
65658;SDS011;60181;53.258;6.932;2023-03-31T20:53:17;11.20;;;2.80;;
65658;SDS011;60181;53.258;6.932;2023-03-31T20:57:21;11.20;;;2.80;;
65658;SDS011;60181;53.258;6.932;2023-03-31T21:01:26;11.20;;;2.80;;
65658;SDS011;60181;53.258;6.932;2023-03-31T21:05:29;9.80;;;2.50;;
65658;SDS011;60181;53.258;6.932;2023-03-31T21:09:33;9.80;;;2.50;;
65658;SDS011;60181;53.258;6.932;2023-03-31T21:13:37;9.40;;;2.70;;
65658;SDS011;60181;53.258;6.932;2023-03-31T21:17:41;9.40;;;2.70;;
65658;SDS011;60181;53.258;6.932;2023-03-31T21:21:45;9.40;;;2.70;;
65658;SDS011;60181;53.258;6.932;2023-03-31T21:25:50;7.90;;;2.50;;
65658;SDS011;60181;53.258;6.932;2023-03-31T21:29:53;7.90;;;2.50;;
65658;SDS011;60181;53.258;6.932;2023-03-31T21:33:57;10.70;;;2.80;;
65658;SDS011;60181;53.258;6.932;2023-03-31T21:38:01;10.70;;;2.80;;
65658;SDS011;60181;53.258;6.932;2023-03-31T21:42:05;10.70;;;2.80;;
65658;SDS011;60181;53.258;6.932;2023-03-31T21:46:16;7.00;;;2.60;;
65658;SDS011;60181;53.258;6.932;2023-03-31T21:50:13;7.00;;;2.60;;
65658;SDS011;60181;53.258;6.932;2023-03-31T21:54:17;9.20;;;2.70;;
65658;SDS011;60181;53.258;6.932;2023-03-31T21:58:22;9.20;;;2.70;;
65658;SDS011;60181;53.258;6.932;2023-03-31T22:02:25;9.20;;;2.70;;
65658;SDS011;60181;53.258;6.932;2023-03-31T22:06:29;6.90;;;2.50;;
65658;SDS011;60181;53.258;6.932;2023-03-31T22:10:33;6.90;;;2.50;;
65658;SDS011;60181;53.258;6.932;2023-03-31T22:14:37;5.50;;;2.20;;
65658;SDS011;60181;53.258;6.932;2023-03-31T22:18:41;5.50;;;2.20;;
65658;SDS011;60181;53.258;6.932;2023-03-31T22:22:45;5.50;;;2.20;;
65658;SDS011;60181;53.258;6.932;2023-03-31T22:26:49;5.00;;;2.00;;
65658;SDS011;60181;53.258;6.932;2023-03-31T22:30:53;5.00;;;2.00;;
65658;SDS011;60181;53.258;6.932;2023-03-31T22:34:57;6.90;;;2.10;;
65658;SDS011;60181;53.258;6.932;2023-03-31T22:39:01;6.90;;;2.10;;
65658;SDS011;60181;53.258;6.932;2023-03-31T22:43:05;6.10;;;2.30;;
65658;SDS011;60181;53.258;6.932;2023-03-31T22:47:09;6.10;;;2.30;;
65658;SDS011;60181;53.258;6.932;2023-03-31T22:51:13;6.10;;;2.30;;
65658;SDS011;60181;53.258;6.932;2023-03-31T22:55:17;7.60;;;2.60;;
65658;SDS011;60181;53.258;6.932;2023-03-31T22:59:21;7.60;;;2.60;;
65658;SDS011;60181;53.258;6.932;2023-03-31T23:03:25;6.30;;;2.60;;
65658;SDS011;60181;53.258;6.932;2023-03-31T23:07:29;6.30;;;2.60;;
65658;SDS011;60181;53.258;6.932;2023-03-31T23:11:33;6.30;;;2.60;;
65658;SDS011;60181;53.258;6.932;2023-03-31T23:15:37;6.60;;;2.80;;
65658;SDS011;60181;53.258;6.932;2023-03-31T23:19:41;6.60;;;2.80;;
65658;SDS011;60181;53.258;6.932;2023-03-31T23:23:46;9.20;;;2.80;;
65658;SDS011;60181;53.258;6.932;2023-03-31T23:27:49;9.20;;;2.80;;
65658;SDS011;60181;53.258;6.932;2023-03-31T23:31:53;9.20;;;2.80;;
65658;SDS011;60181;53.258;6.932;2023-03-31T23:36:00;6.60;;;2.90;;
65658;SDS011;60181;53.258;6.932;2023-03-31T23:40:01;6.60;;;2.90;;
65658;SDS011;60181;53.258;6.932;2023-03-31T23:44:05;7.10;;;2.70;;
65658;SDS011;60181;53.258;6.932;2023-03-31T23:48:09;7.10;;;2.70;;
65658;SDS011;60181;53.258;6.932;2023-03-31T23:52:13;7.10;;;2.70;;
65658;SDS011;60181;53.258;6.932;2023-03-31T23:56:17;5.50;;;2.70;;
